createdAt,value
2023-06-29T00:00:17.949Z,21.18
2023-06-29T00:02:20.814Z,21.17
2023-06-29T00:04:27.004Z,21.17
2023-06-29T00:06:32.715Z,21.17
2023-06-29T00:08:36.743Z,21.12
2023-06-29T00:10:40.680Z,20.97
2023-06-29T00:12:43.564Z,20.95
2023-06-29T00:14:46.532Z,20.97
2023-06-29T00:16:51.796Z,20.99
2023-06-29T00:18:56.348Z,20.98
2023-06-29T00:20:59.070Z,20.91
2023-06-29T00:23:01.961Z,20.99
2023-06-29T00:25:05.449Z,21.03
2023-06-29T00:27:08.436Z,21.02
2023-06-29T00:29:11.332Z,21.01
2023-06-29T00:31:14.403Z,20.98
2023-06-29T00:33:18.728Z,20.96
2023-06-29T00:35:21.652Z,20.90
2023-06-29T00:37:24.658Z,20.87
2023-06-29T00:39:27.669Z,20.84
2023-06-29T00:41:30.526Z,20.82
2023-06-29T00:43:33.699Z,20.82
2023-06-29T00:45:36.633Z,20.74
2023-06-29T00:47:41.602Z,20.83
2023-06-29T00:49:46.003Z,20.81
2023-06-29T00:51:52.031Z,20.76
2023-06-29T00:53:55.338Z,20.68
2023-06-29T00:55:59.901Z,20.62
2023-06-29T00:58:03.331Z,20.62
2023-06-29T01:00:11.669Z,20.63
2023-06-29T01:02:16.617Z,20.58
2023-06-29T01:04:26.140Z,20.58
2023-06-29T01:06:33.884Z,20.56
2023-06-29T01:08:41.238Z,20.56
2023-06-29T01:10:48.113Z,20.55
2023-06-29T01:12:52.412Z,20.54
2023-06-29T01:14:56.540Z,20.39
2023-06-29T01:17:00.597Z,20.41
2023-06-29T01:19:06.787Z,20.46
2023-06-29T01:21:09.857Z,20.52
2023-06-29T01:23:19.619Z,20.52
2023-06-29T01:25:24.095Z,20.45
2023-06-29T01:27:27.005Z,20.24
2023-06-29T01:29:33.023Z,20.16
2023-06-29T01:31:35.888Z,20.15
2023-06-29T01:33:39.019Z,20.14
2023-06-29T01:35:42.273Z,20.10
2023-06-29T01:37:52.319Z,20.04
2023-06-29T01:40:00.252Z,19.96
2023-06-29T01:42:06.103Z,19.91
2023-06-29T01:44:12.158Z,19.87
2023-06-29T01:46:16.778Z,19.83
2023-06-29T01:48:21.244Z,19.75
2023-06-29T01:50:24.924Z,19.57
2023-06-29T01:52:28.268Z,19.62
2023-06-29T01:54:31.139Z,19.60
2023-06-29T01:56:34.150Z,19.57
2023-06-29T01:58:40.535Z,19.68
2023-06-29T02:00:43.427Z,19.67
2023-06-29T02:02:46.540Z,19.67
2023-06-29T02:04:49.508Z,19.65
2023-06-29T02:06:52.464Z,19.66
2023-06-29T02:08:55.567Z,19.68
2023-06-29T02:10:58.420Z,19.68
2023-06-29T02:13:01.482Z,19.73
2023-06-29T02:15:06.243Z,19.73
2023-06-29T02:17:09.148Z,19.68
2023-06-29T02:19:12.129Z,19.66
2023-06-29T02:21:15.872Z,19.66
2023-06-29T02:23:19.160Z,19.62
2023-06-29T02:25:26.099Z,19.59
2023-06-29T02:27:32.034Z,19.62
2023-06-29T02:29:35.212Z,19.64
2023-06-29T02:31:39.438Z,19.67
2023-06-29T02:33:43.184Z,19.66
2023-06-29T02:35:46.582Z,19.63
2023-06-29T02:37:49.566Z,19.61
2023-06-29T02:39:55.443Z,19.62
2023-06-29T02:41:58.850Z,19.62
2023-06-29T02:44:02.286Z,19.67
2023-06-29T02:46:05.257Z,19.70
2023-06-29T02:48:12.418Z,19.70
2023-06-29T02:50:15.370Z,19.69
2023-06-29T02:52:23.214Z,19.54
2023-06-29T02:54:26.862Z,19.41
2023-06-29T02:56:29.759Z,19.32
2023-06-29T02:58:32.639Z,19.37
2023-06-29T03:00:36.324Z,19.38
2023-06-29T03:02:39.373Z,19.39
2023-06-29T03:04:45.679Z,19.38
2023-06-29T03:06:48.762Z,19.32
2023-06-29T03:08:51.688Z,19.27
2023-06-29T03:10:54.569Z,19.31
2023-06-29T03:12:57.555Z,19.31
2023-06-29T03:15:00.484Z,19.32
2023-06-29T03:17:03.522Z,19.27
2023-06-29T03:19:06.562Z,19.13
2023-06-29T03:21:17.795Z,19.16
2023-06-29T03:23:21.421Z,19.16
2023-06-29T03:25:24.352Z,19.17
2023-06-29T03:27:27.262Z,19.12
2023-06-29T03:29:30.154Z,19.14
2023-06-29T03:31:33.291Z,19.10
2023-06-29T03:33:36.205Z,19.18
2023-06-29T03:35:39.129Z,19.23
2023-06-29T03:37:43.366Z,19.22
2023-06-29T03:39:46.397Z,19.17
2023-06-29T03:41:49.311Z,19.17
2023-06-29T03:43:52.153Z,19.19
2023-06-29T03:45:55.063Z,19.18
2023-06-29T03:47:58.091Z,19.12
2023-06-29T03:50:01.066Z,19.14
2023-06-29T03:52:03.993Z,19.34
2023-06-29T03:54:08.207Z,19.71
2023-06-29T03:56:11.458Z,20.08
2023-06-29T03:58:14.342Z,20.29
2023-06-29T04:00:17.623Z,20.41
2023-06-29T04:02:20.481Z,20.50
2023-06-29T04:04:23.385Z,20.59
2023-06-29T04:06:26.224Z,20.63
2023-06-29T04:08:29.164Z,20.61
2023-06-29T04:10:33.430Z,20.61
2023-06-29T04:12:36.336Z,20.60
2023-06-29T04:14:39.164Z,20.62
2023-06-29T04:16:42.054Z,20.74
2023-06-29T04:18:44.984Z,20.80
2023-06-29T04:20:47.873Z,20.84
2023-06-29T04:22:50.817Z,20.84
2023-06-29T04:24:53.634Z,20.88
2023-06-29T04:26:57.885Z,20.91
2023-06-29T04:29:07.025Z,20.83
2023-06-29T04:31:09.908Z,20.60
2023-06-29T04:33:14.275Z,20.43
2023-06-29T04:35:17.264Z,20.27
2023-06-29T04:37:21.637Z,20.19
2023-06-29T04:39:24.483Z,20.09
2023-06-29T04:41:32.851Z,20.05
2023-06-29T04:43:37.766Z,20.04
2023-06-29T04:45:42.073Z,20.05
2023-06-29T04:47:46.002Z,20.07
2023-06-29T04:49:53.787Z,20.09
2023-06-29T04:52:00.808Z,20.13
2023-06-29T04:54:04.608Z,20.15
2023-06-29T04:56:07.469Z,20.17
2023-06-29T04:58:10.310Z,20.22
2023-06-29T05:00:16.055Z,20.32
2023-06-29T05:02:18.889Z,20.40
2023-06-29T05:04:21.871Z,20.47
2023-06-29T05:06:25.866Z,20.54
2023-06-29T05:08:32.746Z,20.65
2023-06-29T05:10:35.593Z,20.71
2023-06-29T05:12:38.404Z,20.83
2023-06-29T05:14:41.214Z,20.93
2023-06-29T05:16:45.409Z,21.01
2023-06-29T05:18:48.549Z,21.07
2023-06-29T05:20:51.387Z,21.15
2023-06-29T05:22:54.216Z,21.21
2023-06-29T05:24:57.023Z,21.20
2023-06-29T05:26:59.849Z,21.20
2023-06-29T05:29:05.578Z,21.24
2023-06-29T05:31:09.198Z,21.26
2023-06-29T05:33:13.713Z,21.24
2023-06-29T05:35:16.582Z,21.20
2023-06-29T05:37:19.440Z,21.28
2023-06-29T05:39:22.273Z,21.38
2023-06-29T05:41:25.053Z,21.43
2023-06-29T05:43:27.971Z,21.50
2023-06-29T05:45:30.798Z,21.54
2023-06-29T05:47:33.899Z,21.65
2023-06-29T05:49:38.099Z,21.69
2023-06-29T05:51:41.580Z,21.69
2023-06-29T05:53:44.437Z,21.76
2023-06-29T05:55:48.245Z,21.85
2023-06-29T05:57:51.119Z,21.92
2023-06-29T05:59:54.011Z,21.89
2023-06-29T06:01:56.836Z,21.89
2023-06-29T06:03:59.834Z,21.93
2023-06-29T06:06:04.186Z,22.04
2023-06-29T06:08:07.054Z,22.09
2023-06-29T06:10:10.551Z,22.17
2023-06-29T06:12:13.428Z,22.24
2023-06-29T06:14:16.227Z,22.35
2023-06-29T06:16:19.165Z,22.43
2023-06-29T06:18:21.988Z,22.51
2023-06-29T06:20:24.888Z,22.61
2023-06-29T06:22:29.040Z,22.69
2023-06-29T06:24:31.955Z,22.78
2023-06-29T06:26:34.829Z,22.84
2023-06-29T06:28:37.693Z,22.93
2023-06-29T06:30:40.559Z,23.01
2023-06-29T06:32:43.532Z,23.02
2023-06-29T06:34:47.098Z,23.08
2023-06-29T06:36:49.974Z,23.20
2023-06-29T06:38:54.286Z,23.30
2023-06-29T06:40:57.120Z,23.20
2023-06-29T06:43:00.083Z,23.24
2023-06-29T06:45:06.569Z,23.18
2023-06-29T06:47:09.259Z,23.21
2023-06-29T06:49:12.112Z,23.26
2023-06-29T06:51:14.967Z,23.26
2023-06-29T06:53:17.746Z,23.40
2023-06-29T06:55:21.936Z,23.47
2023-06-29T06:57:25.019Z,23.55
2023-06-29T06:59:27.872Z,23.64
2023-06-29T07:01:30.822Z,23.63
2023-06-29T07:03:34.119Z,23.73
2023-06-29T07:05:37.443Z,23.86
2023-06-29T07:07:40.328Z,23.96
2023-06-29T07:09:43.207Z,24.05
2023-06-29T07:11:47.365Z,24.18
2023-06-29T07:13:50.260Z,24.28
2023-06-29T07:15:53.180Z,24.33
2023-06-29T07:17:56.086Z,24.43
2023-06-29T07:24:11.358Z,24.77
2023-06-29T07:26:14.504Z,24.80
2023-06-29T07:28:18.794Z,24.66
2023-06-29T07:30:21.495Z,24.51
2023-06-29T07:32:24.347Z,24.48
2023-06-29T07:34:27.244Z,24.62
2023-06-29T07:36:30.524Z,24.65
2023-06-29T07:38:33.339Z,24.58
2023-06-29T07:40:36.297Z,24.52
2023-06-29T07:42:40.762Z,24.46
2023-06-29T07:44:44.969Z,24.39
2023-06-29T07:46:47.770Z,24.38
2023-06-29T07:48:51.675Z,24.36
2023-06-29T07:50:54.595Z,24.36
2023-06-29T07:52:57.436Z,24.43
2023-06-29T07:55:00.265Z,24.50
2023-06-29T07:59:12.530Z,24.50
2023-06-29T08:01:19.163Z,24.48
2023-06-29T08:03:22.065Z,24.50
2023-06-29T08:07:30.725Z,24.60
2023-06-29T08:09:33.636Z,24.69
2023-06-29T08:11:36.525Z,24.73
2023-06-29T08:13:39.336Z,24.70
2023-06-29T08:15:42.227Z,24.71
2023-06-29T08:17:46.446Z,24.81
2023-06-29T08:19:49.324Z,24.88
2023-06-29T08:21:56.428Z,24.90
2023-06-29T08:23:59.338Z,25.02
2023-06-29T08:26:02.313Z,25.13
2023-06-29T08:28:05.542Z,25.20
2023-06-29T08:30:09.470Z,25.24
2023-06-29T08:32:12.511Z,25.29
2023-06-29T08:34:16.880Z,25.30
2023-06-29T08:36:20.080Z,25.26
2023-06-29T08:38:22.919Z,25.33
2023-06-29T08:40:27.965Z,25.46
2023-06-29T08:42:30.828Z,25.63
2023-06-29T08:44:34.623Z,25.55
2023-06-29T08:46:39.880Z,25.43
2023-06-29T08:48:45.843Z,25.26
2023-06-29T08:50:55.419Z,25.32
2023-06-29T08:52:58.924Z,25.47
2023-06-29T08:55:03.012Z,25.68
2023-06-29T08:57:07.173Z,25.67
2023-06-29T08:59:10.391Z,25.60
2023-06-29T09:01:13.800Z,25.52
2023-06-29T09:03:18.482Z,25.45
2023-06-29T09:05:22.734Z,25.42
2023-06-29T09:07:26.867Z,25.32
2023-06-29T09:09:30.043Z,25.19
2023-06-29T09:11:36.325Z,25.21
2023-06-29T09:13:39.193Z,25.28
2023-06-29T09:15:42.472Z,25.49
2023-06-29T09:17:47.270Z,25.71
2023-06-29T09:19:55.228Z,25.98
2023-06-29T09:21:59.423Z,26.06
2023-06-29T09:24:05.203Z,26.05
2023-06-29T09:26:09.381Z,25.99
2023-06-29T09:28:13.177Z,25.88
2023-06-29T09:30:19.388Z,25.79
2023-06-29T09:32:22.243Z,25.74
2023-06-29T09:34:27.488Z,25.71
2023-06-29T09:36:30.656Z,25.67
2023-06-29T09:38:33.622Z,25.65
2023-06-29T09:40:50.175Z,25.59
2023-06-29T09:42:53.069Z,25.56
2023-06-29T09:44:56.242Z,25.58
2023-06-29T09:49:12.629Z,25.49
2023-06-29T09:51:21.661Z,25.52
2023-06-29T09:53:32.593Z,25.49
2023-06-29T09:55:38.796Z,25.49
2023-06-29T09:57:44.336Z,25.50
2023-06-29T09:59:47.233Z,25.51
2023-06-29T10:01:50.132Z,25.50
2023-06-29T10:03:53.104Z,25.44
2023-06-29T10:05:59.527Z,25.46
2023-06-29T10:08:08.984Z,25.57
2023-06-29T10:10:16.971Z,25.63
2023-06-29T10:12:21.064Z,25.71
2023-06-29T10:14:25.399Z,25.83
2023-06-29T10:16:30.973Z,25.95
2023-06-29T10:18:39.684Z,26.03
2023-06-29T10:20:46.140Z,26.16
2023-06-29T10:22:50.515Z,26.21
2023-06-29T10:24:55.221Z,26.30
2023-06-29T10:27:00.007Z,26.41
2023-06-29T10:29:03.013Z,26.39
2023-06-29T10:31:07.215Z,26.45
2023-06-29T10:33:11.655Z,26.46
2023-06-29T10:35:15.343Z,26.46
2023-06-29T10:37:32.127Z,26.53
2023-06-29T10:39:41.915Z,26.53
2023-06-29T10:41:44.738Z,26.55
2023-06-29T10:43:56.120Z,26.50
2023-06-29T10:46:01.244Z,26.53
2023-06-29T10:48:25.551Z,26.51
2023-06-29T10:50:38.639Z,26.40
2023-06-29T10:52:42.508Z,26.34
2023-06-29T10:54:45.393Z,26.23
2023-06-29T10:56:59.012Z,26.20
2023-06-29T10:59:02.262Z,26.17
2023-06-29T11:01:05.341Z,26.11
2023-06-29T11:03:10.404Z,26.06
2023-06-29T11:05:15.022Z,26.02
2023-06-29T11:07:18.562Z,25.99
2023-06-29T11:09:21.588Z,25.92
2023-06-29T11:11:24.707Z,25.92
2023-06-29T11:13:29.262Z,25.88
2023-06-29T11:15:34.338Z,25.88
2023-06-29T11:17:37.344Z,25.88
2023-06-29T11:19:46.628Z,25.91
2023-06-29T11:21:49.460Z,25.95
2023-06-29T11:23:52.554Z,25.99
2023-06-29T11:25:55.405Z,26.06
2023-06-29T11:27:59.580Z,26.05
2023-06-29T11:30:05.892Z,26.01
2023-06-29T11:32:11.541Z,25.99
2023-06-29T11:34:15.202Z,26.01
2023-06-29T11:36:29.883Z,26.05
2023-06-29T11:38:32.798Z,26.06
2023-06-29T11:40:35.680Z,26.08
2023-06-29T11:42:38.749Z,26.10
2023-06-29T11:44:41.705Z,26.04
2023-06-29T11:46:46.667Z,25.99
2023-06-29T11:48:56.827Z,25.94
2023-06-29T11:51:01.658Z,25.90
2023-06-29T11:53:07.913Z,25.84
2023-06-29T11:55:15.076Z,25.77
2023-06-29T11:57:18.861Z,25.71
2023-06-29T11:59:22.582Z,25.72
2023-06-29T12:03:29.525Z,25.55
2023-06-29T12:05:32.421Z,25.55
2023-06-29T12:07:39.667Z,25.62
2023-06-29T12:09:49.278Z,25.67
2023-06-29T12:11:58.221Z,25.72
2023-06-29T12:14:03.386Z,25.77
2023-06-29T12:18:17.501Z,25.75
2023-06-29T12:20:22.073Z,25.75
2023-06-29T12:22:25.864Z,25.82
2023-06-29T12:24:28.708Z,25.78
2023-06-29T12:26:33.041Z,25.82
2023-06-29T12:28:35.965Z,25.87
2023-06-29T12:30:38.915Z,25.94
2023-06-29T12:32:41.706Z,26.01
2023-06-29T12:34:44.548Z,26.08
2023-06-29T12:36:47.451Z,26.28
2023-06-29T12:38:50.864Z,26.22
2023-06-29T12:40:53.749Z,26.23
2023-06-29T12:42:58.064Z,26.30
2023-06-29T12:45:01.038Z,26.36
2023-06-29T12:47:04.143Z,26.53
2023-06-29T12:49:06.977Z,26.64
2023-06-29T12:51:09.812Z,26.72
2023-06-29T12:53:12.647Z,27.00
2023-06-29T12:55:16.232Z,27.24
2023-06-29T12:57:20.020Z,27.47
2023-06-29T12:59:24.442Z,27.56
2023-06-29T13:01:27.350Z,27.86
2023-06-29T13:03:30.452Z,27.67
2023-06-29T13:05:34.644Z,27.32
2023-06-29T13:07:37.924Z,27.03
2023-06-29T13:09:40.781Z,27.01
2023-06-29T13:11:45.434Z,27.03
2023-06-29T13:13:48.297Z,27.06
2023-06-29T13:15:52.473Z,27.10
2023-06-29T13:17:55.153Z,27.23
2023-06-29T13:19:58.055Z,27.43
2023-06-29T13:22:00.894Z,27.65
2023-06-29T13:24:04.115Z,27.66
2023-06-29T13:26:06.908Z,27.63
2023-06-29T13:28:09.913Z,27.58
2023-06-29T13:30:15.626Z,27.51
2023-06-29T13:32:19.853Z,27.45
2023-06-29T13:34:22.681Z,27.45
2023-06-29T13:36:25.516Z,27.45
2023-06-29T13:38:28.888Z,27.50
2023-06-29T13:40:31.847Z,27.50
2023-06-29T13:42:37.773Z,27.46
2023-06-29T13:44:40.603Z,27.41
2023-06-29T13:46:43.938Z,27.40
2023-06-29T13:48:48.187Z,27.42
2023-06-29T13:50:52.730Z,27.48
2023-06-29T13:52:57.442Z,27.48
2023-06-29T13:55:00.303Z,27.54
2023-06-29T13:57:03.322Z,27.54
2023-06-29T13:59:09.202Z,27.57
2023-06-29T14:01:12.097Z,27.62
2023-06-29T14:03:14.960Z,27.64
2023-06-29T14:05:19.831Z,27.65
2023-06-29T14:07:23.950Z,27.66
2023-06-29T14:09:28.555Z,27.69
2023-06-29T14:11:31.517Z,27.70
2023-06-29T14:13:34.392Z,27.76
2023-06-29T14:15:37.976Z,27.80
2023-06-29T14:17:40.987Z,28.00
2023-06-29T14:19:43.994Z,27.95
2023-06-29T14:21:48.181Z,27.92
2023-06-29T14:23:50.825Z,27.86
2023-06-29T14:25:53.767Z,27.62
2023-06-29T14:27:56.664Z,27.54
2023-06-29T14:29:59.566Z,27.56
2023-06-29T14:32:02.439Z,27.56
2023-06-29T14:34:05.391Z,27.55
2023-06-29T14:36:08.348Z,27.62
2023-06-29T14:38:14.277Z,27.62
2023-06-29T14:40:17.747Z,27.61
2023-06-29T14:42:20.583Z,27.59
2023-06-29T14:44:24.320Z,27.59
2023-06-29T14:46:27.213Z,27.60
2023-06-29T14:48:30.138Z,27.59
2023-06-29T14:50:32.996Z,27.60
2023-06-29T14:52:35.819Z,27.59
2023-06-29T14:54:40.051Z,27.63
2023-06-29T14:56:42.904Z,27.65
2023-06-29T14:58:45.797Z,27.76
2023-06-29T15:00:48.684Z,28.00
2023-06-29T15:02:51.562Z,28.00
2023-06-29T15:04:54.471Z,28.13
2023-06-29T15:06:57.349Z,28.19
2023-06-29T15:09:00.503Z,28.31
2023-06-29T15:11:04.726Z,28.35
2023-06-29T15:13:07.591Z,28.33
2023-06-29T15:15:13.215Z,28.27
2023-06-29T15:17:18.056Z,28.29
2023-06-29T15:19:20.859Z,28.18
2023-06-29T15:21:23.640Z,28.13
2023-06-29T15:23:26.525Z,28.07
2023-06-29T15:25:29.452Z,28.15
2023-06-29T15:27:34.725Z,28.01
2023-06-29T15:29:37.577Z,28.11
2023-06-29T15:31:40.496Z,28.01
2023-06-29T15:33:43.388Z,27.89
2023-06-29T15:35:46.508Z,27.83
2023-06-29T15:37:49.669Z,27.87
2023-06-29T15:39:53.735Z,27.90
2023-06-29T15:41:56.596Z,28.07
2023-06-29T15:44:02.597Z,27.99
2023-06-29T15:46:05.473Z,27.96
2023-06-29T15:48:08.443Z,27.98
2023-06-29T15:50:11.624Z,28.00
2023-06-29T15:52:14.482Z,28.03
2023-06-29T15:54:18.627Z,28.13
2023-06-29T15:56:21.394Z,28.32
2023-06-29T15:58:24.173Z,28.45
2023-06-29T16:00:28.295Z,28.39
2023-06-29T16:02:31.017Z,28.35
2023-06-29T16:04:33.876Z,28.39
2023-06-29T16:06:36.963Z,28.42
2023-06-29T16:08:39.842Z,28.46
2023-06-29T16:10:42.987Z,28.63
2023-06-29T16:12:46.115Z,28.67
2023-06-29T16:14:49.119Z,28.69
2023-06-29T16:16:53.330Z,28.79
2023-06-29T16:18:57.299Z,28.61
2023-06-29T16:21:00.176Z,28.43
2023-06-29T16:23:03.017Z,28.42
2023-06-29T16:25:07.416Z,28.35
2023-06-29T16:27:10.764Z,28.25
2023-06-29T16:29:13.911Z,28.37
2023-06-29T16:31:16.994Z,28.33
2023-06-29T16:33:21.433Z,28.12
2023-06-29T16:35:24.095Z,28.15
2023-06-29T16:37:46.178Z,28.15
2023-06-29T16:39:49.076Z,28.07
2023-06-29T16:41:52.930Z,28.03
2023-06-29T16:43:57.033Z,27.92
2023-06-29T16:46:00.136Z,27.84
2023-06-29T16:48:02.974Z,27.89
2023-06-29T16:50:08.013Z,27.83
2023-06-29T16:52:10.938Z,27.68
2023-06-29T16:54:13.844Z,27.59
2023-06-29T16:56:16.665Z,27.59
2023-06-29T16:58:19.574Z,27.63
2023-06-29T17:00:23.076Z,27.71
2023-06-29T17:02:26.004Z,27.61
2023-06-29T17:04:30.119Z,27.48
2023-06-29T17:06:34.382Z,27.46
2023-06-29T17:08:38.510Z,27.44
2023-06-29T17:10:41.329Z,27.50
2023-06-29T17:12:44.215Z,27.50
2023-06-29T17:14:47.018Z,27.49
2023-06-29T17:16:49.915Z,27.48
2023-06-29T17:18:53.715Z,27.56
2023-06-29T17:20:56.955Z,27.56
2023-06-29T17:23:01.232Z,27.53
2023-06-29T17:25:04.184Z,27.45
2023-06-29T17:27:08.368Z,27.41
2023-06-29T17:29:11.027Z,27.34
2023-06-29T17:31:13.925Z,27.31
2023-06-29T17:33:16.855Z,27.31
2023-06-29T17:35:19.693Z,27.31
2023-06-29T17:37:22.536Z,27.30
2023-06-29T17:39:26.727Z,27.26
2023-06-29T17:41:29.934Z,27.28
2023-06-29T17:43:32.762Z,27.15
2023-06-29T17:45:35.587Z,27.11
2023-06-29T17:47:38.462Z,27.12
2023-06-29T17:49:41.402Z,27.10
2023-06-29T17:51:44.305Z,27.12
2023-06-29T17:53:47.970Z,27.07
2023-06-29T17:56:35.640Z,27.08
2023-06-29T17:58:36.909Z,27.00
2023-06-29T18:00:39.745Z,27.01
2023-06-29T18:02:42.924Z,26.94
2023-06-29T18:04:45.794Z,26.81
2023-06-29T18:06:48.632Z,26.80
2023-06-29T18:08:51.451Z,26.74
2023-06-29T18:10:54.274Z,26.70
2023-06-29T18:12:58.501Z,26.67
2023-06-29T18:15:01.264Z,26.53
2023-06-29T18:17:04.593Z,26.47
2023-06-29T18:19:07.367Z,26.47
2023-06-29T18:21:10.138Z,26.41
2023-06-29T18:23:13.239Z,26.43
2023-06-29T18:25:16.227Z,26.39
2023-06-29T18:27:19.065Z,26.38
2023-06-29T18:29:23.190Z,26.39
2023-06-29T18:31:25.848Z,26.29
2023-06-29T18:33:29.710Z,26.29
2023-06-29T18:35:32.894Z,26.32
2023-06-29T18:37:36.966Z,26.33
2023-06-29T18:39:39.811Z,26.33
2023-06-29T18:41:46.204Z,26.29
2023-06-29T18:43:49.119Z,26.29
2023-06-29T18:45:53.325Z,26.30
2023-06-29T18:47:56.145Z,26.24
2023-06-29T18:49:59.021Z,26.23
2023-06-29T18:52:01.859Z,26.24
2023-06-29T18:54:04.820Z,26.23
2023-06-29T18:56:07.606Z,26.22
2023-06-29T18:58:10.491Z,26.21
2023-06-29T19:00:14.282Z,26.19
2023-06-29T19:02:18.598Z,26.17
2023-06-29T19:04:21.285Z,26.03
2023-06-29T19:06:24.265Z,26.02
2023-06-29T19:08:27.290Z,26.03
2023-06-29T19:10:30.722Z,26.03
2023-06-29T19:12:33.564Z,26.00
2023-06-29T19:14:36.441Z,25.95
2023-06-29T19:16:39.921Z,25.90
2023-06-29T19:18:44.274Z,25.89
2023-06-29T19:20:47.618Z,25.75
2023-06-29T19:22:50.662Z,25.72
2023-06-29T19:24:53.427Z,25.72
2023-06-29T19:26:56.316Z,25.67
2023-06-29T19:28:59.235Z,25.67
2023-06-29T19:31:02.122Z,25.66
2023-06-29T19:33:05.736Z,25.64
2023-06-29T19:35:10.544Z,25.60
2023-06-29T19:37:13.413Z,25.56
2023-06-29T19:39:16.271Z,25.53
2023-06-29T19:41:19.270Z,25.54
2023-06-29T19:43:22.134Z,25.52
2023-06-29T19:45:25.007Z,25.49
2023-06-29T19:47:27.884Z,25.46
2023-06-29T19:49:30.796Z,25.42
2023-06-29T19:51:37.601Z,25.37
2023-06-29T19:53:40.519Z,25.33
2023-06-29T19:55:43.595Z,25.29
2023-06-29T19:57:46.754Z,25.22
2023-06-29T19:59:49.711Z,25.17
2023-06-29T20:01:52.748Z,25.11
2023-06-29T20:03:55.670Z,25.04
2023-06-29T20:05:58.594Z,25.01
2023-06-29T20:08:02.810Z,24.94
2023-06-29T20:10:06.346Z,24.89
2023-06-29T20:12:09.598Z,24.84
2023-06-29T20:14:12.449Z,24.81
2023-06-29T20:16:15.400Z,24.74
2023-06-29T20:18:18.281Z,24.73
2023-06-29T20:20:21.273Z,24.69
2023-06-29T20:22:24.118Z,24.64
2023-06-29T20:24:28.297Z,24.61
2023-06-29T20:26:31.706Z,24.54
2023-06-29T20:28:34.660Z,24.49
2023-06-29T20:30:37.719Z,24.46
2023-06-29T20:32:41.381Z,24.39
2023-06-29T20:34:44.254Z,24.36
2023-06-29T20:36:47.108Z,24.31
2023-06-29T20:38:50.020Z,24.26
2023-06-29T20:40:54.296Z,24.25
2023-06-29T20:42:59.763Z,24.09
2023-06-29T20:45:04.028Z,24.08
2023-06-29T20:47:07.368Z,24.11
2023-06-29T20:49:10.388Z,24.08
2023-06-29T20:51:18.003Z,24.07
2023-06-29T20:53:21.608Z,24.05
2023-06-29T20:55:24.465Z,24.03
2023-06-29T20:57:28.718Z,24.00
2023-06-29T20:59:33.743Z,23.86
2023-06-29T21:01:37.927Z,23.84
2023-06-29T21:03:44.918Z,23.87
2023-06-29T21:05:48.489Z,23.90
2023-06-29T21:07:52.274Z,23.90
2023-06-29T21:09:55.198Z,23.87
2023-06-29T21:11:58.285Z,23.84
2023-06-29T21:14:02.751Z,23.81
2023-06-29T21:16:06.132Z,23.79
2023-06-29T21:18:09.611Z,23.76
2023-06-29T21:20:13.697Z,23.70
2023-06-29T21:22:18.237Z,23.68
2023-06-29T21:24:21.634Z,23.63
2023-06-29T21:26:25.298Z,23.60
2023-06-29T21:28:28.873Z,23.59
2023-06-29T21:30:36.857Z,23.56
2023-06-29T21:32:39.949Z,23.51
2023-06-29T21:34:43.138Z,23.50
2023-06-29T21:36:46.394Z,23.48
2023-06-29T21:38:51.222Z,23.46
2023-06-29T21:40:54.235Z,23.44
2023-06-29T21:42:57.079Z,23.42
2023-06-29T21:44:59.982Z,23.40
2023-06-29T21:47:05.128Z,23.40
2023-06-29T21:49:08.886Z,23.39
2023-06-29T21:51:11.753Z,23.34
2023-06-29T21:53:15.619Z,23.33
2023-06-29T21:55:19.072Z,23.31
2023-06-29T21:57:27.728Z,23.27
2023-06-29T21:59:33.523Z,23.27
2023-06-29T22:01:36.448Z,23.24
2023-06-29T22:03:40.764Z,23.23
2023-06-29T22:05:45.727Z,23.08
2023-06-29T22:07:49.151Z,23.07
2023-06-29T22:09:52.012Z,23.10
2023-06-29T22:11:54.827Z,23.08
2023-06-29T22:13:57.681Z,23.07
2023-06-29T22:16:00.633Z,23.05
2023-06-29T22:18:04.651Z,23.05
2023-06-29T22:20:13.899Z,23.01
2023-06-29T22:22:17.117Z,22.99
2023-06-29T22:24:19.884Z,22.97
2023-06-29T22:26:24.038Z,22.94
2023-06-29T22:28:26.862Z,22.91
2023-06-29T22:30:29.685Z,22.88
2023-06-29T22:32:32.799Z,22.84
2023-06-29T22:34:35.655Z,22.82
2023-06-29T22:36:39.847Z,22.84
2023-06-29T22:38:42.880Z,22.80
2023-06-29T22:40:45.992Z,22.80
2023-06-29T22:42:49.150Z,22.76
2023-06-29T22:44:52.020Z,22.76
2023-06-29T22:46:54.983Z,22.75
2023-06-29T22:48:57.791Z,22.74
2023-06-29T22:51:01.055Z,22.72
2023-06-29T22:53:05.364Z,22.71
2023-06-29T22:55:08.750Z,22.67
2023-06-29T22:57:11.525Z,22.63
2023-06-29T22:59:14.721Z,22.64
2023-06-29T23:01:17.549Z,22.62
2023-06-29T23:03:20.544Z,22.61
2023-06-29T23:05:23.555Z,22.57
2023-06-29T23:07:26.417Z,22.57
2023-06-29T23:09:30.886Z,22.56
2023-06-29T23:11:33.833Z,22.55
2023-06-29T23:13:41.388Z,22.54
2023-06-29T23:15:45.413Z,22.51
2023-06-29T23:17:48.878Z,22.46
2023-06-29T23:19:51.762Z,22.47
2023-06-29T23:21:54.624Z,22.47
2023-06-29T23:23:58.206Z,22.48
2023-06-29T23:26:07.433Z,22.46
2023-06-29T23:28:12.223Z,22.40
2023-06-29T23:30:16.716Z,22.38
2023-06-29T23:32:19.618Z,22.36
2023-06-29T23:34:23.172Z,22.35
2023-06-29T23:36:26.071Z,22.35
2023-06-29T23:38:28.853Z,22.35
2023-06-29T23:40:32.717Z,22.34
2023-06-29T23:42:37.014Z,22.35
2023-06-29T23:44:41.602Z,22.31
2023-06-29T23:46:45.880Z,22.30
2023-06-29T23:48:48.935Z,22.27
2023-06-29T23:50:51.800Z,22.25
2023-06-29T23:52:54.650Z,22.26
2023-06-29T23:54:57.610Z,22.24
2023-06-29T23:57:00.448Z,22.24
2023-06-29T23:59:04.998Z,22.26
